Time;durP1;ratioP1;P1;durP2;ratioP2;P2;SDS_P1;SDS_P2;PMS_P1;PMS_P2;Temp;Humidity;BMP_temperature;BMP_pressure;BME280_temperature;BME280_humidity;BME280_pressure;Samples;Min_cycle;Max_cycle;Signal;HPM_P1;HPM_P2
2023/10/09 00:01:46;;;;;;;2.50;1.23;;;22.40;58.20;;;;;;5032483;28;20383;-66
2023/10/09 00:04:16;;;;;;;1.90;1.43;;;22.40;58.20;;;;;;5032295;28;20541;-66
2023/10/09 00:06:41;;;;;;;3.47;1.70;;;22.40;58.20;;;;;;5032344;28;20438;-66
2023/10/09 00:09:18;;;;;;;1.83;1.50;;;22.40;58.20;;;;;;5032468;28;20438;-67
2023/10/09 00:11:44;;;;;;;3.03;1.40;;;22.40;58.30;;;;;;5032180;28;20198;-66
2023/10/09 00:14:11;;;;;;;1.77;1.57;;;22.40;58.20;;;;;;5032113;28;20846;-67
2023/10/09 00:16:43;;;;;;;3.60;1.90;;;22.40;58.20;;;;;;5032206;28;20497;-66
2023/10/09 00:19:17;;;;;;;1.70;1.50;;;22.40;58.30;;;;;;5014326;28;20798;-66
2023/10/09 00:21:44;;;;;;;1.50;1.33;;;22.40;58.20;;;;;;5032076;28;20500;-66
2023/10/09 00:24:13;;;;;;;1.43;1.20;;;22.40;58.20;;;;;;5031949;28;20430;-66
2023/10/09 00:26:45;;;;;;;2.13;1.70;;;22.40;58.30;;;;;;5014870;28;20406;-66
2023/10/09 00:29:15;;;;;;;1.30;1.13;;;22.40;58.20;;;;;;5032208;28;20425;-66
2023/10/09 00:31:50;;;;;;;1.80;1.20;;;22.40;58.30;;;;;;5032303;28;20475;-66
2023/10/09 00:34:19;;;;;;;1.57;1.10;;;22.40;58.20;;;;;;5031929;28;20441;-66
2023/10/09 00:36:51;;;;;;;1.40;1.27;;;22.40;58.20;;;;;;5031625;28;20525;-66
2023/10/09 00:39:43;;;;;;;1.50;1.03;;;22.40;58.20;;;;;;5032088;28;20434;-66
2023/10/09 00:42:07;;;;;;;1.67;1.10;;;22.40;58.20;;;;;;5030895;28;20464;-66
2023/10/09 00:44:42;;;;;;;1.77;1.30;;;22.40;58.30;;;;;;5031701;28;20425;-67
2023/10/09 00:47:20;;;;;;;2.10;1.13;;;22.40;58.20;;;;;;5031768;28;20753;-67
2023/10/09 00:50:01;;;;;;;1.97;1.47;;;22.40;58.20;;;;;;5031639;28;20401;-66
2023/10/09 00:52:43;;;;;;;1.77;1.30;;;22.40;58.20;;;;;;5031638;28;20485;-66
2023/10/09 00:55:14;;;;;;;1.30;1.20;;;22.40;58.30;;;;;;5031278;28;20461;-66
2023/10/09 00:57:50;;;;;;;1.43;1.33;;;22.40;58.30;;;;;;5031388;28;20799;-67
2023/10/09 01:03:13;;;;;;;2.37;1.50;;;22.40;58.30;;;;;;5031418;28;20399;-66
2023/10/09 01:05:45;;;;;;;1.37;1.10;;;22.40;58.30;;;;;;5031490;28;20386;-66
2023/10/09 01:08:23;;;;;;;2.27;1.37;;;22.40;58.30;;;;;;5031324;28;20399;-66
2023/10/09 01:11:08;;;;;;;3.23;1.07;;;22.40;58.30;;;;;;5031206;28;20783;-66
2023/10/09 01:16:17;;;;;;;1.37;1.07;;;22.40;58.30;;;;;;5031178;28;20386;-66
2023/10/09 01:18:44;;;;;;;2.47;1.17;;;22.40;58.30;;;;;;5031005;28;20507;-67
2023/10/09 01:21:14;;;;;;;2.27;1.40;;;22.40;58.30;;;;;;5030275;28;20410;-66
2023/10/09 01:24:03;;;;;;;1.43;1.20;;;22.40;58.30;;;;;;5030214;28;20445;-68
2023/10/09 01:26:57;;;;;;;1.90;1.40;;;22.40;58.30;;;;;;5031033;28;20515;-66
2023/10/09 01:29:27;;;;;;;1.80;1.30;;;22.40;58.30;;;;;;5030131;28;20410;-66
2023/10/09 01:31:55;;;;;;;2.10;1.30;;;22.40;58.30;;;;;;5031226;28;20410;-66
2023/10/09 01:34:59;;;;;;;1.77;1.37;;;22.40;58.30;;;;;;5012966;28;20984;-66
2023/10/09 01:37:31;;;;;;;1.57;1.10;;;22.40;58.30;;;;;;5030872;28;20449;-66
2023/10/09 01:39:59;;;;;;;2.07;1.27;;;22.40;58.30;;;;;;5030922;28;20395;-66
2023/10/09 01:42:45;;;;;;;1.40;1.30;;;22.40;58.30;;;;;;5030796;28;20407;-66
2023/10/09 01:45:11;;;;;;;2.03;1.50;;;22.40;58.30;;;;;;5030652;28;20426;-67
2023/10/09 01:47:40;;;;;;;2.00;1.33;;;22.40;58.30;;;;;;5030672;28;20910;-66
2023/10/09 01:50:11;;;;;;;2.77;1.50;;;22.40;58.30;;;;;;5030669;28;20787;-67
2023/10/09 01:52:38;;;;;;;1.70;1.30;;;22.40;58.20;;;;;;5030693;28;20401;-67
2023/10/09 01:55:09;;;;;;;1.30;1.03;;;22.40;58.30;;;;;;5030644;28;20426;-66
2023/10/09 01:57:39;;;;;;;1.50;1.20;;;22.40;58.20;;;;;;5030535;28;20434;-67
2023/10/09 02:00:07;;;;;;;1.50;1.20;;;22.40;58.30;;;;;;5030496;28;20407;-67
2023/10/09 02:02:35;;;;;;;1.80;1.40;;;22.40;58.20;;;;;;5012825;28;20428;-66
2023/10/09 02:05:25;;;;;;;1.70;1.10;;;22.40;58.20;;;;;;5030514;28;20430;-66
2023/10/09 02:07:51;;;;;;;1.90;1.40;;;22.40;58.20;;;;;;5034377;28;20394;-66
2023/10/09 02:10:25;;;;;;;1.97;1.10;;;22.40;58.20;;;;;;5034503;28;20508;-66
2023/10/09 02:12:59;;;;;;;1.60;1.40;;;22.40;58.20;;;;;;5034546;28;20894;-66
2023/10/09 02:16:15;;;;;;;1.70;1.30;;;22.40;58.20;;;;;;5034466;28;20400;-67
2023/10/09 02:21:00;;;;;;;1.53;1.17;;;22.40;58.20;;;;;;5034743;28;20402;-66
2023/10/09 02:23:46;;;;;;;1.30;1.13;;;22.40;58.30;;;;;;5034296;28;20801;-67
2023/10/09 02:26:26;;;;;;;1.87;1.37;;;22.40;58.20;;;;;;5034383;28;20394;-67
2023/10/09 02:28:58;;;;;;;2.07;1.40;;;22.40;58.20;;;;;;5034160;28;20406;-66
2023/10/09 02:31:28;;;;;;;1.30;1.10;;;22.40;58.20;;;;;;5016924;28;20865;-67
2023/10/09 02:33:55;;;;;;;1.70;1.50;;;22.40;58.30;;;;;;5034049;28;20487;-66
2023/10/09 02:36:21;;;;;;;1.70;1.20;;;22.40;58.30;;;;;;5034070;28;20430;-66
2023/10/09 02:38:48;;;;;;;1.60;1.30;;;22.40;58.20;;;;;;5033931;28;20477;-67
2023/10/09 02:43:47;;;;;;;1.80;1.50;;;22.40;58.20;;;;;;5034415;28;20426;-66
2023/10/09 02:46:20;;;;;;;1.47;1.27;;;22.40;58.20;;;;;;5033970;28;20388;-66
2023/10/09 02:48:52;;;;;;;1.60;1.50;;;22.40;58.20;;;;;;5033849;28;20414;-66
2023/10/09 02:51:47;;;;;;;2.07;1.40;;;22.40;58.20;;;;;;5033747;28;20414;-66
2023/10/09 02:54:18;;;;;;;2.30;1.50;;;22.40;58.20;;;;;;5032775;28;20830;-66
2023/10/09 02:56:55;;;;;;;2.67;1.50;;;22.40;58.20;;;;;;5033739;28;20398;-66
2023/10/09 02:59:21;;;;;;;1.57;1.20;;;22.40;58.30;;;;;;5033746;28;20402;-67
2023/10/09 03:01:48;;;;;;;1.73;1.37;;;22.40;58.30;;;;;;5033605;28;20485;-66
2023/10/09 03:04:14;;;;;;;1.40;1.30;;;22.40;58.20;;;;;;5033460;28;20468;-66
2023/10/09 03:06:49;;;;;;;1.80;1.30;;;22.40;58.20;;;;;;5033479;28;20418;-66
2023/10/09 03:09:19;;;;;;;1.60;1.30;;;22.40;58.20;;;;;;5033456;28;20387;-66
2023/10/09 03:11:53;;;;;;;1.97;1.30;;;22.40;58.20;;;;;;5033442;28;20402;-66
2023/10/09 03:14:20;;;;;;;2.20;1.40;;;22.40;58.80;;;;;;5033382;28;20469;-67
2023/10/09 03:16:48;;;;;;;1.83;1.67;;;22.40;58.20;;;;;;5033277;28;20492;-66
2023/10/09 03:19:14;;;;;;;1.70;1.40;;;22.40;58.20;;;;;;5033190;28;20537;-66
2023/10/09 03:21:40;;;;;;;4.20;1.63;;;22.40;58.20;;;;;;5033214;28;20848;-67
2023/10/09 03:24:07;;;;;;;2.33;1.40;;;22.40;58.20;;;;;;5033140;28;20860;-66
2023/10/09 03:26:33;;;;;;;1.57;1.30;;;22.40;58.20;;;;;;5033115;28;20841;-66
2023/10/09 03:29:06;;;;;;;2.17;1.50;;;22.40;58.20;;;;;;5015277;28;20413;-66
2023/10/09 03:31:36;;;;;;;1.87;1.43;;;22.40;58.20;;;;;;5033136;28;20164;-66
2023/10/09 03:34:02;;;;;;;1.90;1.33;;;22.40;58.20;;;;;;5015079;28;20847;-66
2023/10/09 03:36:29;;;;;;;1.70;1.40;;;22.40;58.30;;;;;;5015241;28;20474;-66
2023/10/09 03:38:57;;;;;;;1.80;1.20;;;22.40;58.20;;;;;;5032833;28;20545;-66
2023/10/09 03:41:26;;;;;;;1.43;1.20;;;22.40;58.20;;;;;;5032823;28;20409;-66
2023/10/09 03:43:52;;;;;;;2.30;1.20;;;22.40;58.20;;;;;;5032906;28;21038;-67
2023/10/09 03:46:25;;;;;;;1.23;1.10;;;22.40;58.20;;;;;;5032823;28;20417;-66
2023/10/09 03:48:52;;;;;;;1.60;1.20;;;22.40;58.20;;;;;;5032987;28;20402;-66
2023/10/09 03:51:21;;;;;;;1.60;1.40;;;22.40;58.20;;;;;;5032736;28;20406;-67
2023/10/09 03:53:51;;;;;;;1.63;1.43;;;22.40;58.20;;;;;;5032531;28;20439;-67
2023/10/09 03:56:17;;;;;;;5.43;1.60;;;22.40;58.20;;;;;;5032569;28;20469;-67
2023/10/09 03:58:46;;;;;;;1.60;1.20;;;22.40;58.20;;;;;;5032490;28;20942;-66
2023/10/09 04:01:29;;;;;;;2.10;1.53;;;22.40;58.10;;;;;;5032459;28;20171;-66
2023/10/09 04:03:59;;;;;;;2.07;1.80;;;22.40;58.10;;;;;;5032440;28;20438;-66
2023/10/09 04:06:30;;;;;;;1.90;1.40;;;22.40;58.20;;;;;;5032395;28;20442;-65
2023/10/09 04:08:58;;;;;;;1.30;1.13;;;22.40;58.20;;;;;;5032358;28;20433;-67
2023/10/09 04:11:24;;;;;;;1.57;1.30;;;22.40;58.10;;;;;;5032303;28;20414;-66
2023/10/09 04:13:52;;;;;;;2.17;1.50;;;22.40;58.10;;;;;;5032537;28;20460;-66
2023/10/09 04:18:56;;;;;;;2.27;1.37;;;22.40;58.20;;;;;;5032399;28;20445;-67
2023/10/09 04:21:36;;;;;;;1.73;1.30;;;22.40;58.10;;;;;;5032204;28;20464;-65
2023/10/09 04:26:44;;;;;;;1.57;1.13;;;22.40;58.10;;;;;;5032358;28;20398;-66
2023/10/09 04:29:18;;;;;;;1.60;1.13;;;22.40;58.20;;;;;;5031509;28;20399;-66
2023/10/09 04:31:51;;;;;;;1.73;1.30;;;22.40;58.20;;;;;;5032233;28;20402;-67
2023/10/09 04:37:01;;;;;;;1.63;1.33;;;22.40;58.20;;;;;;5031799;28;20461;-66
2023/10/09 04:47:37;;;;;;;1.87;1.33;;;22.40;58.20;;;;;;5032331;28;20507;-66
2023/10/09 04:50:36;;;;;;;1.77;1.30;;;22.40;58.30;;;;;;5031594;28;20402;-67
2023/10/09 04:53:39;;;;;;;1.73;1.50;;;22.40;58.70;;;;;;5031207;28;20414;-65
2023/10/09 04:55:54;;;;;;;1.73;1.30;;;22.40;58.30;;;;;;5029161;28;20498;-67
2023/10/09 04:58:24;;;;;;;2.30;1.50;;;22.40;58.30;;;;;;5031125;28;20468;-67
2023/10/09 05:03:27;;;;;;;2.13;1.47;;;22.40;58.30;;;;;;5031591;28;20437;-66
2023/10/09 05:05:59;;;;;;;1.77;1.50;;;22.40;58.20;;;;;;5031203;28;20410;-66
2023/10/09 05:16:05;;;;;;;1.87;1.50;;;22.40;58.20;;;;;;5031420;28;20395;-67
2023/10/09 05:18:36;;;;;;;2.20;1.50;;;22.40;58.20;;;;;;5031077;28;20516;-67
2023/10/09 05:24:15;;;;;;;2.87;2.10;;;22.40;58.20;;;;;;5031063;28;20547;-67
2023/10/09 05:26:50;;;;;;;1.90;1.80;;;22.40;58.30;;;;;;5030988;28;20504;-67
2023/10/09 05:37:33;;;;;;;2.10;1.60;;;22.40;58.20;;;;;;5031003;28;20549;-66
2023/10/09 05:47:54;;;;;;;2.27;1.93;;;22.40;58.20;;;;;;5031093;28;20410;-67
2023/10/09 06:03:53;;;;;;;2.13;1.90;;;22.40;58.30;;;;;;5030682;28;20453;-67
2023/10/09 06:06:42;;;;;;;2.90;1.77;;;22.40;58.30;;;;;;5030775;28;20403;-66
2023/10/09 06:24:42;;;;;;;1.80;1.60;;;22.40;58.20;;;;;;5030495;28;20800;-67
2023/10/09 06:35:15;;;;;;;1.57;1.47;;;22.50;58.30;;;;;;5030476;28;20440;-67
2023/10/09 06:45:54;;;;;;;1.50;1.40;;;22.50;58.30;;;;;;5030281;28;20386;-66
2023/10/09 06:56:24;;;;;;;2.23;1.80;;;22.50;58.30;;;;;;5033868;28;20414;-65
2023/10/09 06:58:54;;;;;;;2.23;1.60;;;22.50;58.30;;;;;;5033698;28;20449;-64
2023/10/09 07:04:18;;;;;;;2.47;1.63;;;22.50;58.30;;;;;;5033767;28;20483;-67
2023/10/09 07:06:51;;;;;;;2.87;2.27;;;22.50;58.30;;;;;;5033875;28;20760;-66
2023/10/09 07:09:20;;;;;;;2.07;1.57;;;22.50;58.40;;;;;;5033669;28;20399;-66
2023/10/09 07:16:57;;;;;;;2.13;1.93;;;22.50;58.30;;;;;;5033561;28;20386;-66
2023/10/09 07:19:57;;;;;;;1.70;1.40;;;22.50;58.30;;;;;;5033164;28;20596;-66
2023/10/09 07:22:29;;;;;;;1.83;1.37;;;22.50;58.30;;;;;;5033250;28;20517;-66
2023/10/09 07:27:45;;;;;;;2.40;1.77;;;22.50;58.40;;;;;;5033675;28;20458;-66
2023/10/09 07:38:19;;;;;;;2.10;1.60;;;22.50;58.40;;;;;;5033462;28;20454;-65
2023/10/09 07:46:32;;;;;;;2.00;1.80;;;22.50;58.40;;;;;;5033189;28;20829;-65
2023/10/09 07:49:00;;;;;;;1.53;1.40;;;22.50;58.40;;;;;;5033092;28;20410;-66
2023/10/09 07:51:32;;;;;;;1.87;1.47;;;22.50;58.40;;;;;;5032813;28;20789;-67
2023/10/09 07:54:08;;;;;;;1.73;1.30;;;22.50;58.40;;;;;;5032742;28;20442;-66
2023/10/09 07:56:41;;;;;;;3.03;1.87;;;22.50;58.40;;;;;;5032859;28;20473;-66
2023/10/09 07:59:10;;;;;;;2.00;1.40;;;22.50;58.40;;;;;;5032924;28;20916;-67
2023/10/09 08:01:54;;;;;;;2.47;2.10;;;22.50;58.40;;;;;;5014840;28;20419;-67
2023/10/09 08:07:25;;;;;;;1.40;1.23;;;22.50;58.40;;;;;;5032812;28;20753;-67
2023/10/09 08:15:56;;;;;;;2.10;1.33;;;22.50;58.40;;;;;;5032466;28;20805;-65
2023/10/09 08:18:07;;;;;;;1.97;1.63;;;22.50;58.40;;;;;;5014625;28;20465;-66
2023/10/09 08:23:28;;;;;;;1.70;1.60;;;22.50;58.40;;;;;;5032560;28;20433;-66
2023/10/09 08:26:13;;;;;;;1.80;1.50;;;22.50;58.40;;;;;;5032265;28;20394;-66
2023/10/09 08:28:39;;;;;;;1.50;1.40;;;22.50;58.40;;;;;;5032177;28;20882;-67
2023/10/09 08:33:58;;;;;;;2.07;1.60;;;22.50;58.40;;;;;;5016169;28;20488;-67
2023/10/09 08:36:28;;;;;;;1.70;1.40;;;22.50;58.40;;;;;;5031637;28;20955;-65
2023/10/09 08:39:13;;;;;;;1.50;1.40;;;22.50;58.40;;;;;;5031873;28;20457;-67
2023/10/09 08:41:38;;;;;;;1.80;1.50;;;22.60;58.40;;;;;;5031827;28;20390;-65
2023/10/09 08:44:05;;;;;;;1.60;1.50;;;22.50;58.30;;;;;;5031814;28;20438;-66
2023/10/09 08:46:31;;;;;;;1.40;1.30;;;22.50;58.30;;;;;;5031899;28;20648;-67
2023/10/09 08:48:59;;;;;;;1.40;1.30;;;22.50;58.30;;;;;;5031841;28;20406;-66
2023/10/09 08:51:26;;;;;;;2.03;1.37;;;22.50;58.30;;;;;;5031630;28;20415;-66
2023/10/09 08:53:53;;;;;;;1.73;1.63;;;22.50;58.30;;;;;;5031721;28;20443;-66
2023/10/09 08:56:23;;;;;;;2.13;1.37;;;22.60;58.40;;;;;;5031578;28;20417;-66
2023/10/09 08:58:56;;;;;;;2.10;1.70;;;22.50;58.30;;;;;;5031704;28;20450;-68
2023/10/09 09:01:24;;;;;;;1.40;1.20;;;22.60;58.30;;;;;;5031619;28;20512;-67
2023/10/09 09:03:51;;;;;;;1.53;1.37;;;22.60;58.30;;;;;;5031664;28;20792;-66
2023/10/09 09:06:19;;;;;;;2.80;1.20;;;22.60;58.40;;;;;;5031420;28;21009;-67
2023/10/09 09:08:46;;;;;;;1.57;1.47;;;22.60;58.30;;;;;;5031369;28;20408;-66
2023/10/09 09:11:22;;;;;;;1.20;1.10;;;22.60;58.30;;;;;;5031260;28;20411;-66
2023/10/09 09:14:12;;;;;;;1.47;1.37;;;22.50;58.30;;;;;;5031281;28;20422;-67
2023/10/09 09:16:44;;;;;;;1.87;1.17;;;22.60;58.30;;;;;;5031189;28;20774;-68
2023/10/09 09:21:43;;;;;;;1.70;1.30;;;22.50;58.30;;;;;;5031483;28;20442;-66
2023/10/09 09:26:59;;;;;;;2.10;1.60;;;22.60;58.40;;;;;;5031297;28;20896;-66
2023/10/09 09:29:37;;;;;;;1.40;1.20;;;22.60;58.40;;;;;;5031131;28;20390;-64
2023/10/09 09:32:23;;;;;;;1.67;1.53;;;22.60;58.30;;;;;;5031046;28;20781;-65
2023/10/09 09:34:54;;;;;;;1.70;1.47;;;22.50;58.30;;;;;;5030980;28;20433;-67
2023/10/09 09:37:50;;;;;;;1.70;1.40;;;22.60;58.40;;;;;;5031012;28;20781;-66
2023/10/09 09:40:15;;;;;;;1.97;1.40;;;22.60;58.30;;;;;;5030926;28;20518;-66
2023/10/09 09:42:48;;;;;;;1.90;1.60;;;22.50;58.30;;;;;;5030828;28;20442;-67
2023/10/09 09:45:14;;;;;;;1.60;1.30;;;22.60;58.40;;;;;;5030835;28;20436;-65
2023/10/09 09:47:46;;;;;;;1.90;1.40;;;22.50;58.30;;;;;;5031139;28;20485;-65
2023/10/09 09:50:24;;;;;;;1.50;1.20;;;22.60;58.40;;;;;;5030713;28;20395;-67
2023/10/09 09:52:55;;;;;;;2.10;1.43;;;22.60;58.40;;;;;;5030818;28;20386;-66
2023/10/09 09:55:30;;;;;;;1.30;1.20;;;22.60;58.40;;;;;;5030728;28;20820;-66
2023/10/09 09:57:57;;;;;;;1.93;1.77;;;22.60;58.40;;;;;;5030760;28;20449;-67
2023/10/09 10:00:30;;;;;;;1.63;1.40;;;22.60;58.40;;;;;;5030706;28;20406;-65
2023/10/09 10:03:08;;;;;;;1.40;1.30;;;22.60;58.40;;;;;;5030530;28;20391;-67
2023/10/09 10:05:35;;;;;;;1.80;1.60;;;22.60;58.40;;;;;;5030701;28;20902;-68
2023/10/09 10:08:04;;;;;;;2.33;1.50;;;22.60;58.90;;;;;;5030534;28;20418;-68
2023/10/09 10:10:37;;;;;;;1.67;1.30;;;22.60;58.40;;;;;;5030911;28;20775;-67
2023/10/09 10:13:04;;;;;;;1.67;1.30;;;22.60;58.30;;;;;;5030456;28;20411;-67
2023/10/09 10:16:19;;;;;;;1.50;1.30;;;22.60;58.40;;;;;;5030471;28;20477;-67
2023/10/09 10:19:06;;;;;;;4.03;1.37;;;22.60;58.40;;;;;;5030672;28;20453;-67
2023/10/09 10:21:40;;;;;;;1.60;1.40;;;22.60;58.40;;;;;;5030431;28;20402;-67
2023/10/09 10:24:31;;;;;;;1.50;1.40;;;22.60;58.40;;;;;;5030698;28;20426;-66
2023/10/09 10:27:26;;;;;;;1.77;1.40;;;22.60;58.40;;;;;;5031175;28;20394;-67
2023/10/09 10:30:11;;;;;;;1.40;1.20;;;22.60;58.40;;;;;;5034554;28;20450;-66
2023/10/09 10:32:52;;;;;;;1.40;1.20;;;22.60;58.40;;;;;;5034118;28;20981;-66
2023/10/09 10:35:32;;;;;;;1.27;1.00;;;22.60;58.40;;;;;;5033934;28;20449;-67
2023/10/09 10:40:46;;;;;;;1.40;1.17;;;22.60;58.40;;;;;;5034082;28;20439;-67
2023/10/09 10:46:32;;;;;;;1.60;1.50;;;22.60;58.40;;;;;;5034301;28;20429;-68
2023/10/09 10:51:49;;;;;;;1.93;1.43;;;22.60;58.40;;;;;;5034206;28;20402;-67
2023/10/09 10:57:00;;;;;;;1.97;1.50;;;22.60;58.50;;;;;;5034076;28;20406;-67
2023/10/09 10:59:36;;;;;;;2.20;1.17;;;22.60;58.40;;;;;;5033694;28;20488;-67
2023/10/09 11:04:45;;;;;;;2.87;1.67;;;22.60;58.40;;;;;;5033630;28;20813;-67
2023/10/09 11:07:16;;;;;;;1.97;1.70;;;22.60;58.40;;;;;;5015892;28;20542;-67
2023/10/09 11:10:08;;;;;;;1.37;1.27;;;22.60;58.40;;;;;;5033591;28;20460;-67
2023/10/09 11:15:37;;;;;;;1.50;1.17;;;22.60;58.40;;;;;;5033408;28;20426;-67
2023/10/09 11:18:07;;;;;;;1.33;1.23;;;22.60;58.40;;;;;;5033360;28;20445;-67
2023/10/09 11:20:53;;;;;;;1.33;1.23;;;22.60;58.40;;;;;;5033419;28;20416;-67
2023/10/09 11:23:29;;;;;;;2.13;1.50;;;22.60;58.40;;;;;;5033342;28;20430;-67
2023/10/09 11:26:07;;;;;;;1.50;1.20;;;22.60;58.40;;;;;;5017111;28;20402;-67
2023/10/09 11:28:48;;;;;;;2.40;1.50;;;22.60;58.40;;;;;;5033174;28;20481;-68
2023/10/09 11:31:16;;;;;;;1.20;1.03;;;22.60;58.40;;;;;;5032489;28;20398;-65
2023/10/09 11:33:48;;;;;;;1.67;1.53;;;22.60;58.40;;;;;;5033025;28;20434;-66
2023/10/09 11:36:16;;;;;;;1.50;1.30;;;22.60;58.40;;;;;;5033024;28;20430;-67
2023/10/09 11:38:45;;;;;;;2.07;1.60;;;22.60;58.40;;;;;;5031602;28;20872;-67
2023/10/09 11:41:19;;;;;;;1.53;1.23;;;22.60;58.40;;;;;;5033360;28;20488;-66
2023/10/09 11:43:58;;;;;;;1.33;1.17;;;22.60;58.40;;;;;;5032884;28;20782;-66
2023/10/09 11:46:37;;;;;;;1.77;1.40;;;22.60;58.40;;;;;;5032919;28;20399;-66
2023/10/09 11:52:03;;;;;;;2.00;1.27;;;22.60;58.40;;;;;;5033162;28;20399;-67
2023/10/09 11:54:35;;;;;;;1.80;1.50;;;22.60;58.50;;;;;;5032500;28;20449;-67
2023/10/09 11:57:02;;;;;;;1.70;1.30;;;22.60;58.50;;;;;;5032629;28;20429;-67
2023/10/09 11:59:34;;;;;;;1.60;1.50;;;22.60;58.40;;;;;;5032688;28;20508;-67
2023/10/09 12:02:00;;;;;;;1.60;1.50;;;22.70;58.50;;;;;;5032812;28;20464;-67
2023/10/09 12:04:30;;;;;;;1.50;1.20;;;22.70;58.50;;;;;;5032494;28;20434;-67
2023/10/09 12:07:08;;;;;;;2.80;1.57;;;22.70;58.50;;;;;;5032458;28;20493;-67
2023/10/09 12:09:34;;;;;;;1.53;1.40;;;22.70;58.50;;;;;;5032584;28;20398;-65
2023/10/09 12:12:02;;;;;;;3.20;1.20;;;22.70;58.50;;;;;;5032462;28;20428;-68
2023/10/09 12:14:33;;;;;;;2.13;1.50;;;22.70;58.50;;;;;;5032371;28;20282;-66
2023/10/09 12:17:05;;;;;;;2.50;1.63;;;22.70;58.50;;;;;;5032715;28;20395;-66
2023/10/09 12:19:35;;;;;;;1.57;1.30;;;22.70;58.50;;;;;;5032282;28;20825;-66
2023/10/09 12:22:03;;;;;;;1.63;1.40;;;22.70;58.50;;;;;;5032381;28;20433;-67
2023/10/09 12:24:33;;;;;;;2.23;1.53;;;22.70;58.50;;;;;;5032068;28;20513;-67
2023/10/09 12:26:59;;;;;;;1.47;1.37;;;22.70;58.50;;;;;;5032157;28;20440;-66
2023/10/09 12:29:29;;;;;;;1.40;1.20;;;22.70;58.50;;;;;;5032176;28;20786;-66
2023/10/09 12:31:58;;;;;;;2.67;1.53;;;22.70;58.50;;;;;;5032383;28;20427;-67
2023/10/09 12:34:26;;;;;;;2.13;1.83;;;22.70;58.50;;;;;;5028711;28;20442;-66
2023/10/09 12:36:55;;;;;;;1.40;1.20;;;22.70;58.50;;;;;;5012033;28;20450;-66
2023/10/09 12:39:21;;;;;;;1.43;1.20;;;22.70;58.50;;;;;;5012045;28;20874;-68
2023/10/09 12:41:48;;;;;;;2.07;1.37;;;22.70;58.50;;;;;;5012073;28;20414;-66
2023/10/09 12:44:14;;;;;;;3.97;1.50;;;22.70;58.50;;;;;;5011963;28;20485;-67
2023/10/09 12:46:51;;;;;;;4.97;1.77;;;22.70;58.50;;;;;;5012019;28;20912;-66
2023/10/09 12:49:19;;;;;;;2.50;1.40;;;22.70;58.50;;;;;;5011953;28;20439;-67
2023/10/09 12:51:45;;;;;;;1.30;1.13;;;22.70;58.50;;;;;;5011952;28;20403;-67
2023/10/09 12:54:13;;;;;;;1.60;1.27;;;22.70;58.50;;;;;;5011835;28;20439;-67
2023/10/09 12:56:40;;;;;;;1.50;1.20;;;22.70;58.50;;;;;;5011836;28;20412;-67
2023/10/09 12:59:14;;;;;;;1.30;1.10;;;22.70;58.50;;;;;;5011933;28;20450;-67
2023/10/09 13:01:43;;;;;;;1.80;1.30;;;22.70;58.50;;;;;;5012146;28;20217;-67
2023/10/09 13:04:16;;;;;;;1.37;1.00;;;22.70;58.50;;;;;;5011936;28;20464;-67
2023/10/09 13:06:45;;;;;;;1.30;1.20;;;22.70;58.50;;;;;;5011895;28;20411;-67
2023/10/09 13:09:13;;;;;;;1.53;1.37;;;22.70;58.50;;;;;;5011688;28;20447;-66
2023/10/09 13:11:40;;;;;;;1.80;1.40;;;22.70;58.50;;;;;;5011508;28;20416;-68
2023/10/09 13:14:27;;;;;;;1.60;1.43;;;22.70;58.50;;;;;;5011507;28;20440;-67
2023/10/09 13:16:52;;;;;;;1.50;1.30;;;22.70;58.50;;;;;;5010910;28;20999;-66
2023/10/09 13:19:18;;;;;;;1.67;1.30;;;22.70;58.50;;;;;;5011456;28;20826;-68
2023/10/09 13:21:44;;;;;;;1.97;1.43;;;22.70;58.50;;;;;;5011179;28;20411;-66
2023/10/09 13:24:15;;;;;;;1.30;1.17;;;22.70;58.50;;;;;;5011257;28;20514;-64
2023/10/09 13:26:51;;;;;;;1.70;1.20;;;22.70;58.50;;;;;;5011432;28;20967;-67
2023/10/09 13:29:22;;;;;;;2.03;1.20;;;22.70;58.50;;;;;;4993623;28;20500;-67
2023/10/09 13:31:49;;;;;;;1.50;1.33;;;22.70;58.50;;;;;;5011258;28;20407;-68
2023/10/09 13:34:17;;;;;;;1.80;1.50;;;22.70;58.50;;;;;;5011178;28;20530;-67
2023/10/09 13:36:53;;;;;;;1.70;1.30;;;22.70;58.60;;;;;;5011111;28;20526;-67
2023/10/09 13:39:25;;;;;;;1.60;1.20;;;22.70;58.50;;;;;;4993454;28;20454;-67
2023/10/09 13:41:58;;;;;;;1.60;1.40;;;22.70;58.50;;;;;;5011143;28;20384;-67
2023/10/09 13:44:28;;;;;;;1.30;1.20;;;22.70;58.60;;;;;;5010682;28;20429;-67
2023/10/09 13:46:56;;;;;;;1.30;1.10;;;22.70;58.50;;;;;;5010619;28;20419;-68
2023/10/09 13:49:22;;;;;;;1.40;1.27;;;22.70;58.50;;;;;;5011292;28;20517;-69
2023/10/09 13:51:56;;;;;;;1.90;1.10;;;22.70;58.60;;;;;;5011195;28;20414;-67
2023/10/09 13:54:28;;;;;;;1.77;1.40;;;22.70;58.60;;;;;;4993232;28;20963;-67
2023/10/09 13:56:54;;;;;;;2.77;1.23;;;22.70;58.60;;;;;;5011079;28;20395;-70
2023/10/09 13:59:22;;;;;;;1.90;1.10;;;22.70;58.50;;;;;;5011223;28;20509;-66
2023/10/09 14:01:54;;;;;;;1.50;1.23;;;22.70;58.60;;;;;;5011651;28;20399;-69
2023/10/09 14:04:20;;;;;;;1.83;1.20;;;22.70;59.10;;;;;;5015271;28;20434;-68
2023/10/09 14:06:47;;;;;;;1.50;1.40;;;22.70;58.50;;;;;;4997488;28;20778;-67
2023/10/09 14:09:27;;;;;;;1.23;1.10;;;22.70;58.50;;;;;;5015555;28;20833;-66
2023/10/09 14:12:05;;;;;;;2.40;1.60;;;22.70;58.50;;;;;;5015377;28;20410;-67
2023/10/09 14:14:36;;;;;;;1.73;1.00;;;22.70;58.60;;;;;;5015336;28;20431;-65
2023/10/09 14:17:11;;;;;;;1.40;1.30;;;22.70;58.50;;;;;;5014600;28;20454;-66
2023/10/09 14:19:38;;;;;;;1.60;1.03;;;22.70;58.60;;;;;;5014926;28;20443;-66
2023/10/09 14:22:05;;;;;;;3.70;1.43;;;22.70;58.60;;;;;;5014732;28;20407;-68
2023/10/09 14:24:32;;;;;;;1.53;1.20;;;22.70;58.60;;;;;;5014451;28;20427;-66
2023/10/09 14:26:59;;;;;;;1.57;1.17;;;22.70;58.60;;;;;;5014581;28;20422;-65
2023/10/09 14:29:26;;;;;;;1.77;1.47;;;22.70;58.60;;;;;;5014512;28;20811;-66
2023/10/09 14:32:00;;;;;;;1.50;1.10;;;22.70;58.50;;;;;;5014720;28;20417;-66
2023/10/09 14:34:32;;;;;;;2.70;1.27;;;22.70;58.60;;;;;;5013805;28;20469;-66
2023/10/09 14:37:00;;;;;;;2.10;1.20;;;22.70;58.50;;;;;;5014298;28;21022;-64
2023/10/09 14:39:27;;;;;;;2.20;2.00;;;22.70;58.50;;;;;;5014304;28;21040;-66
2023/10/09 14:41:57;;;;;;;1.37;1.17;;;22.70;58.50;;;;;;5014322;28;20426;-65
2023/10/09 14:44:27;;;;;;;2.03;1.30;;;22.70;58.50;;;;;;5014164;28;20426;-66
2023/10/09 14:46:55;;;;;;;1.90;1.57;;;22.70;58.60;;;;;;5014254;28;20396;-64
2023/10/09 14:49:21;;;;;;;1.87;1.33;;;22.70;58.60;;;;;;5014389;28;20802;-66
2023/10/09 14:51:47;;;;;;;1.10;1.00;;;22.70;58.60;;;;;;5014320;28;20423;-65
2023/10/09 14:54:15;;;;;;;1.77;1.40;;;22.70;58.60;;;;;;5013733;28;20438;-66
2023/10/09 14:56:41;;;;;;;1.50;1.17;;;22.70;58.60;;;;;;5014260;28;20644;-65
2023/10/09 14:59:06;;;;;;;2.13;1.40;;;22.70;58.60;;;;;;5013911;28;20451;-66
2023/10/09 15:01:33;;;;;;;1.23;1.10;;;22.70;58.60;;;;;;5013947;28;20168;-67
2023/10/09 15:04:03;;;;;;;1.97;1.20;;;22.70;58.60;;;;;;5013838;28;20430;-66
2023/10/09 15:06:30;;;;;;;2.17;1.20;;;22.70;58.60;;;;;;5013859;28;20165;-66
2023/10/09 15:09:07;;;;;;;1.87;1.10;;;22.70;58.60;;;;;;5013857;28;20838;-66
2023/10/09 15:11:34;;;;;;;1.63;1.20;;;22.70;58.60;;;;;;5013650;28;20391;-66
2023/10/09 15:14:00;;;;;;;1.53;1.30;;;22.70;58.60;;;;;;5013188;28;20431;-66
2023/10/09 15:16:26;;;;;;;3.80;1.50;;;22.70;58.60;;;;;;5013611;28;20995;-65
2023/10/09 15:18:57;;;;;;;1.60;1.30;;;22.70;58.60;;;;;;5013534;28;20493;-66
2023/10/09 15:21:26;;;;;;;1.50;1.40;;;22.70;58.60;;;;;;5013514;28;20407;-67
2023/10/09 15:23:54;;;;;;;2.30;1.40;;;22.70;58.60;;;;;;5013326;28;20434;-64
2023/10/09 15:26:20;;;;;;;2.47;1.50;;;22.70;58.60;;;;;;5013636;28;20450;-67
2023/10/09 15:28:46;;;;;;;1.70;1.30;;;22.70;58.60;;;;;;5013410;28;20407;-66
2023/10/09 15:31:13;;;;;;;3.50;1.33;;;22.70;58.60;;;;;;5013402;28;20830;-66
2023/10/09 15:33:39;;;;;;;2.70;1.20;;;22.70;58.60;;;;;;5013267;28;20207;-66
2023/10/09 15:36:20;;;;;;;2.00;1.40;;;22.70;58.60;;;;;;5013155;28;20431;-66
2023/10/09 15:38:46;;;;;;;2.97;1.53;;;22.70;58.60;;;;;;5013181;28;20439;-67
2023/10/09 15:41:15;;;;;;;2.07;1.43;;;22.70;58.60;;;;;;5013181;28;20450;-66
2023/10/09 15:43:41;;;;;;;2.20;1.10;;;22.70;58.60;;;;;;5013059;28;20435;-66
2023/10/09 15:46:14;;;;;;;1.97;1.20;;;22.70;58.60;;;;;;5013025;28;20407;-65
2023/10/09 15:48:40;;;;;;;1.53;1.20;;;22.70;58.60;;;;;;5013329;28;20420;-66
2023/10/09 15:51:15;;;;;;;1.53;1.30;;;22.70;58.60;;;;;;5013060;28;20403;-66
2023/10/09 15:53:42;;;;;;;2.10;1.63;;;22.70;59.10;;;;;;5012930;28;20430;-66
2023/10/09 15:56:08;;;;;;;2.27;1.57;;;22.60;58.50;;;;;;5013160;28;20419;-67
2023/10/09 15:58:34;;;;;;;2.20;1.40;;;22.70;58.60;;;;;;5012758;28;20804;-65
2023/10/09 16:00:59;;;;;;;3.77;2.00;;;22.70;58.50;;;;;;5012838;28;20215;-66
2023/10/09 16:03:27;;;;;;;3.50;2.20;;;22.70;58.60;;;;;;4995033;28;20207;-66
2023/10/09 16:05:53;;;;;;;1.97;1.30;;;22.60;58.50;;;;;;4995608;28;20267;-67